LFRI

La Roche-sur-Yon Airport

La Roche-sur-Yon/Les Ajoncs, France
TAF AMD LFRI 161804Z 1618/1718 17006KT 9999 BKN028 TEMPO 1618/1620 32015G25KT 4000 SHRA BKN008 BKN020TCU SCT030CB BECMG 1620/1622 28008KT SCT020 TEMPO 1701/1715 27015G25KT 4000 -SHRA SCT020CB BKN030TCU BECMG 1715/1718 SCT015
Issued Valid From Valid To
Jan-16 @ 18:04 UTC
(23 minutes ago)
Jan-16 @ 18:00 UTC
(27 minutes ago)
Jan-17 @ 18:00 UTC
(in 24 hours)
Jan-16 @ 18:00 to Jan-16 @ 20:00
TAF AMD LFRI 161804Z 1618/1718 17006KT 9999 BKN028
Wind Visibility Clouds
170° at 6 knots 10,000+ meters
  • Broken at 2,800' AGL
Temporary Jan-16 @ 18:00 to Jan-16 @ 20:00
TEMPO 1618/1620 32015G25KT 4000 SHRA BKN008 BKN020TCU SCT030CB
Wind Visibility Clouds Conditions
320° at 15 knots
 Gusting to 25 knots
4,007 meters
  • Broken at 800' AGL
  • Broken at 2,000' AGL
  • Scattered at 3,000' AGL
  • Rain
Becoming Jan-16 @ 20:00 to Jan-17 @ 15:00
BECMG 1620/1622 28008KT SCT020
Wind Visibility Clouds
280° at 8 knots 10,000+ meters
  • Scattered at 2,000' AGL
Temporary Jan-17 @ 01:00 to Jan-17 @ 15:00
TEMPO 1701/1715 27015G25KT 4000 -SHRA SCT020CB BKN030TCU
Wind Visibility Clouds Conditions
270° at 15 knots
 Gusting to 25 knots
4,007 meters
  • Scattered at 2,000' AGL
  • Broken at 3,000' AGL
  • Light Rain
Becoming Jan-17 @ 15:00 to Jan-17 @ 18:00
BECMG 1715/1718 SCT015
Wind Visibility Clouds
280° at 8 knots 10,000+ meters
  • Scattered at 1,500' AGL
TAF AMD LFRI 161804Z 1618/1718 17006KT 9999 BKN028 TEMPO 1618/1620 32015G25KT 4000 SHRA BKN008 BKN020TCU SCT030CB BECMG 1620/1622 28008KT SCT020 TEMPO 1701/1715 27015G25KT 4000 -SHRA SCT020CB BKN030TCU BECMG 1715/1718 SCT015
Issued Jan-16 @ 18:04 UTC
(23 minutes ago)
Valid From Jan-16 @ 18:00 UTC
(27 minutes ago)
Valid To Jan-17 @ 18:00 UTC
(in 24 hours)
Jan-16 @ 18:00 - Jan-16 @ 20:00
Wind Visibility
170° at 6 knots 10,000+ meters
Clouds
  • Broken at 2,800' AGL
Temporary Jan-16 @ 18:00 - Jan-16 @ 20:00
Wind Visibility
320° at 15 knots
 Gusting to 25 knots
4,007 meters
Clouds
  • Broken at 800' AGL
  • Broken at 2,000' AGL
  • Scattered at 3,000' AGL
Conditions
  • Rain
Becoming Jan-16 @ 20:00 - Jan-17 @ 15:00
Wind Visibility
280° at 8 knots 10,000+ meters
Clouds
  • Scattered at 2,000' AGL
Temporary Jan-17 @ 01:00 - Jan-17 @ 15:00
Wind Visibility
270° at 15 knots
 Gusting to 25 knots
4,007 meters
Clouds
  • Scattered at 2,000' AGL
  • Broken at 3,000' AGL
Conditions
  • Light Rain
Becoming Jan-17 @ 15:00 - Jan-17 @ 18:00
Wind Visibility
280° at 8 knots 10,000+ meters
Clouds
  • Scattered at 1,500' AGL